sensor_id;sensor_type;location;lat;lon;timestamp;P1;durP1;ratioP1;P2;durP2;ratioP2
1987;SDS011;12775;46.994;15.498;2023-09-12T00:00:50;16.18;;;14.98;;
1987;SDS011;12775;46.994;15.498;2023-09-12T00:03:19;14.24;;;13.06;;
1987;SDS011;12775;46.994;15.498;2023-09-12T00:05:50;14.40;;;13.32;;
1987;SDS011;12775;46.994;15.498;2023-09-12T00:08:11;15.44;;;14.10;;
1987;SDS011;12775;46.994;15.498;2023-09-12T00:10:38;17.42;;;16.04;;
1987;SDS011;12775;46.994;15.498;2023-09-12T00:13:05;16.16;;;14.90;;
1987;SDS011;12775;46.994;15.498;2023-09-12T00:15:31;15.40;;;14.30;;
1987;SDS011;12775;46.994;15.498;2023-09-12T00:17:58;16.02;;;14.74;;
1987;SDS011;12775;46.994;15.498;2023-09-12T00:20:25;17.04;;;15.44;;
1987;SDS011;12775;46.994;15.498;2023-09-12T00:22:52;14.92;;;13.82;;
1987;SDS011;12775;46.994;15.498;2023-09-12T00:25:19;16.40;;;13.98;;
1987;SDS011;12775;46.994;15.498;2023-09-12T00:27:46;15.30;;;14.02;;
1987;SDS011;12775;46.994;15.498;2023-09-12T00:30:14;16.56;;;15.46;;
1987;SDS011;12775;46.994;15.498;2023-09-12T00:32:40;16.90;;;15.60;;
1987;SDS011;12775;46.994;15.498;2023-09-12T00:35:07;16.78;;;15.48;;
1987;SDS011;12775;46.994;15.498;2023-09-12T00:37:33;17.22;;;15.88;;
1987;SDS011;12775;46.994;15.498;2023-09-12T00:40:00;18.92;;;17.42;;
1987;SDS011;12775;46.994;15.498;2023-09-12T00:42:27;16.66;;;15.42;;
1987;SDS011;12775;46.994;15.498;2023-09-12T00:44:53;15.42;;;14.22;;
1987;SDS011;12775;46.994;15.498;2023-09-12T00:47:21;17.40;;;16.14;;
1987;SDS011;12775;46.994;15.498;2023-09-12T00:49:48;18.88;;;17.44;;
1987;SDS011;12775;46.994;15.498;2023-09-12T00:52:14;16.96;;;15.38;;
1987;SDS011;12775;46.994;15.498;2023-09-12T00:54:41;16.58;;;15.28;;
1987;SDS011;12775;46.994;15.498;2023-09-12T00:57:08;15.16;;;13.78;;
1987;SDS011;12775;46.994;15.498;2023-09-12T00:59:35;18.36;;;16.66;;
1987;SDS011;12775;46.994;15.498;2023-09-12T01:02:01;13.18;;;12.24;;
1987;SDS011;12775;46.994;15.498;2023-09-12T01:04:28;14.52;;;13.26;;
1987;SDS011;12775;46.994;15.498;2023-09-12T01:06:54;13.54;;;12.30;;
1987;SDS011;12775;46.994;15.498;2023-09-12T01:09:21;15.38;;;14.00;;
1987;SDS011;12775;46.994;15.498;2023-09-12T01:11:48;17.32;;;15.82;;
1987;SDS011;12775;46.994;15.498;2023-09-12T01:14:14;14.50;;;13.34;;
1987;SDS011;12775;46.994;15.498;2023-09-12T01:16:41;15.52;;;14.32;;
1987;SDS011;12775;46.994;15.498;2023-09-12T01:19:07;16.20;;;14.68;;
1987;SDS011;12775;46.994;15.498;2023-09-12T01:21:41;16.52;;;15.32;;
1987;SDS011;12775;46.994;15.498;2023-09-12T01:24:30;15.00;;;13.50;;
1987;SDS011;12775;46.994;15.498;2023-09-12T01:27:14;13.86;;;12.86;;
1987;SDS011;12775;46.994;15.498;2023-09-12T01:29:57;13.60;;;12.48;;
1987;SDS011;12775;46.994;15.498;2023-09-12T01:32:23;15.04;;;13.70;;
1987;SDS011;12775;46.994;15.498;2023-09-12T01:34:49;15.68;;;14.58;;
1987;SDS011;12775;46.994;15.498;2023-09-12T01:37:16;15.44;;;14.24;;
1987;SDS011;12775;46.994;15.498;2023-09-12T01:39:43;16.24;;;14.78;;
1987;SDS011;12775;46.994;15.498;2023-09-12T01:42:11;19.20;;;17.70;;
1987;SDS011;12775;46.994;15.498;2023-09-12T01:44:37;18.14;;;16.84;;
1987;SDS011;12775;46.994;15.498;2023-09-12T01:47:03;18.90;;;17.30;;
1987;SDS011;12775;46.994;15.498;2023-09-12T01:49:30;18.52;;;17.12;;
1987;SDS011;12775;46.994;15.498;2023-09-12T01:51:56;18.46;;;17.14;;
1987;SDS011;12775;46.994;15.498;2023-09-12T01:54:23;17.70;;;16.20;;
1987;SDS011;12775;46.994;15.498;2023-09-12T01:56:50;15.90;;;14.62;;
1987;SDS011;12775;46.994;15.498;2023-09-12T01:59:16;15.22;;;14.12;;
1987;SDS011;12775;46.994;15.498;2023-09-12T02:01:43;15.10;;;13.96;;
1987;SDS011;12775;46.994;15.498;2023-09-12T02:04:09;15.26;;;14.16;;
1987;SDS011;12775;46.994;15.498;2023-09-12T02:06:36;15.60;;;14.40;;
1987;SDS011;12775;46.994;15.498;2023-09-12T02:09:03;18.32;;;16.84;;
1987;SDS011;12775;46.994;15.498;2023-09-12T02:11:30;17.82;;;16.54;;
1987;SDS011;12775;46.994;15.498;2023-09-12T02:13:56;17.22;;;15.84;;
1987;SDS011;12775;46.994;15.498;2023-09-12T02:16:23;15.20;;;14.10;;
1987;SDS011;12775;46.994;15.498;2023-09-12T02:18:50;16.34;;;15.12;;
1987;SDS011;12775;46.994;15.498;2023-09-12T02:21:17;15.40;;;13.94;;
1987;SDS011;12775;46.994;15.498;2023-09-12T02:23:44;14.28;;;13.08;;
1987;SDS011;12775;46.994;15.498;2023-09-12T02:26:10;14.48;;;13.38;;
1987;SDS011;12775;46.994;15.498;2023-09-12T02:28:37;14.10;;;13.08;;
1987;SDS011;12775;46.994;15.498;2023-09-12T02:31:09;15.70;;;14.48;;
1987;SDS011;12775;46.994;15.498;2023-09-12T02:33:30;14.64;;;13.54;;
1987;SDS011;12775;46.994;15.498;2023-09-12T02:35:57;18.18;;;16.76;;
1987;SDS011;12775;46.994;15.498;2023-09-12T02:38:23;17.52;;;15.92;;
1987;SDS011;12775;46.994;15.498;2023-09-12T02:40:50;16.06;;;14.76;;
1987;SDS011;12775;46.994;15.498;2023-09-12T02:43:16;14.70;;;13.54;;
1987;SDS011;12775;46.994;15.498;2023-09-12T02:45:44;13.50;;;12.44;;
1987;SDS011;12775;46.994;15.498;2023-09-12T02:48:10;15.00;;;13.90;;
1987;SDS011;12775;46.994;15.498;2023-09-12T02:50:37;16.82;;;15.42;;
1987;SDS011;12775;46.994;15.498;2023-09-12T02:53:04;18.30;;;16.50;;
1987;SDS011;12775;46.994;15.498;2023-09-12T02:55:30;18.56;;;17.26;;
1987;SDS011;12775;46.994;15.498;2023-09-12T02:57:57;18.22;;;16.68;;
1987;SDS011;12775;46.994;15.498;2023-09-12T03:00:23;17.62;;;16.10;;
1987;SDS011;12775;46.994;15.498;2023-09-12T03:02:50;19.80;;;18.14;;
1987;SDS011;12775;46.994;15.498;2023-09-12T03:05:17;17.00;;;15.44;;
1987;SDS011;12775;46.994;15.498;2023-09-12T03:07:43;15.40;;;14.26;;
1987;SDS011;12775;46.994;15.498;2023-09-12T03:10:10;18.66;;;17.02;;
1987;SDS011;12775;46.994;15.498;2023-09-12T03:12:36;18.30;;;16.82;;
1987;SDS011;12775;46.994;15.498;2023-09-12T03:15:03;18.26;;;16.86;;
1987;SDS011;12775;46.994;15.498;2023-09-12T03:17:30;16.22;;;14.78;;
1987;SDS011;12775;46.994;15.498;2023-09-12T03:19:57;16.36;;;15.14;;
1987;SDS011;12775;46.994;15.498;2023-09-12T03:22:23;14.36;;;13.26;;
1987;SDS011;12775;46.994;15.498;2023-09-12T03:24:50;14.88;;;13.80;;
1987;SDS011;12775;46.994;15.498;2023-09-12T03:27:17;13.88;;;12.86;;
1987;SDS011;12775;46.994;15.498;2023-09-12T03:29:46;22.48;;;20.64;;
1987;SDS011;12775;46.994;15.498;2023-09-12T03:32:10;16.66;;;15.26;;
1987;SDS011;12775;46.994;15.498;2023-09-12T03:34:38;16.70;;;15.40;;
1987;SDS011;12775;46.994;15.498;2023-09-12T03:37:04;16.36;;;14.62;;
1987;SDS011;12775;46.994;15.498;2023-09-12T03:39:31;15.68;;;14.38;;
1987;SDS011;12775;46.994;15.498;2023-09-12T03:41:58;14.50;;;13.50;;
1987;SDS011;12775;46.994;15.498;2023-09-12T03:44:25;16.84;;;15.54;;
1987;SDS011;12775;46.994;15.498;2023-09-12T03:46:52;18.56;;;16.94;;
1987;SDS011;12775;46.994;15.498;2023-09-12T03:49:18;17.50;;;16.16;;
1987;SDS011;12775;46.994;15.498;2023-09-12T03:51:45;20.80;;;18.64;;
1987;SDS011;12775;46.994;15.498;2023-09-12T03:54:11;16.50;;;15.20;;
1987;SDS011;12775;46.994;15.498;2023-09-12T03:56:38;14.50;;;13.30;;
1987;SDS011;12775;46.994;15.498;2023-09-12T03:59:05;15.72;;;14.52;;
1987;SDS011;12775;46.994;15.498;2023-09-12T04:01:31;16.58;;;15.18;;
1987;SDS011;12775;46.994;15.498;2023-09-12T04:03:58;13.96;;;12.52;;
1987;SDS011;12775;46.994;15.498;2023-09-12T04:06:24;24.74;;;16.14;;
1987;SDS011;12775;46.994;15.498;2023-09-12T04:08:51;16.22;;;14.78;;
1987;SDS011;12775;46.994;15.498;2023-09-12T04:11:18;15.74;;;14.38;;
1987;SDS011;12775;46.994;15.498;2023-09-12T04:13:45;22.58;;;17.86;;
1987;SDS011;12775;46.994;15.498;2023-09-12T04:16:12;16.34;;;14.74;;
1987;SDS011;12775;46.994;15.498;2023-09-12T04:18:38;16.42;;;12.92;;
1987;SDS011;12775;46.994;15.498;2023-09-12T04:21:05;16.86;;;15.36;;
1987;SDS011;12775;46.994;15.498;2023-09-12T04:23:31;15.94;;;14.62;;
1987;SDS011;12775;46.994;15.498;2023-09-12T04:25:58;14.02;;;12.72;;
1987;SDS011;12775;46.994;15.498;2023-09-12T04:28:25;16.36;;;14.90;;
1987;SDS011;12775;46.994;15.498;2023-09-12T04:31:00;25.58;;;22.60;;
1987;SDS011;12775;46.994;15.498;2023-09-12T04:33:19;23.76;;;21.28;;
1987;SDS011;12775;46.994;15.498;2023-09-12T04:35:45;19.60;;;17.56;;
1987;SDS011;12775;46.994;15.498;2023-09-12T04:38:12;22.34;;;19.56;;
1987;SDS011;12775;46.994;15.498;2023-09-12T04:40:39;21.68;;;19.70;;
1987;SDS011;12775;46.994;15.498;2023-09-12T04:43:05;24.36;;;21.88;;
1987;SDS011;12775;46.994;15.498;2023-09-12T04:45:32;24.60;;;22.42;;
1987;SDS011;12775;46.994;15.498;2023-09-12T04:47:58;22.10;;;20.08;;
1987;SDS011;12775;46.994;15.498;2023-09-12T04:50:26;22.78;;;20.52;;
1987;SDS011;12775;46.994;15.498;2023-09-12T04:52:53;20.20;;;18.18;;
1987;SDS011;12775;46.994;15.498;2023-09-12T04:55:20;18.64;;;17.22;;
1987;SDS011;12775;46.994;15.498;2023-09-12T04:57:47;19.02;;;17.44;;
1987;SDS011;12775;46.994;15.498;2023-09-12T05:00:13;18.48;;;16.92;;
1987;SDS011;12775;46.994;15.498;2023-09-12T05:02:40;24.76;;;20.78;;
1987;SDS011;12775;46.994;15.498;2023-09-12T05:05:06;20.32;;;18.64;;
1987;SDS011;12775;46.994;15.498;2023-09-12T05:07:33;22.06;;;19.86;;
1987;SDS011;12775;46.994;15.498;2023-09-12T05:10:00;18.36;;;16.84;;
1987;SDS011;12775;46.994;15.498;2023-09-12T05:12:26;20.86;;;19.28;;
1987;SDS011;12775;46.994;15.498;2023-09-12T05:14:54;22.16;;;20.08;;
1987;SDS011;12775;46.994;15.498;2023-09-12T05:17:20;22.20;;;20.08;;
1987;SDS011;12775;46.994;15.498;2023-09-12T05:19:47;21.98;;;19.78;;
1987;SDS011;12775;46.994;15.498;2023-09-12T05:22:14;23.06;;;20.88;;
1987;SDS011;12775;46.994;15.498;2023-09-12T05:24:40;20.86;;;19.06;;
1987;SDS011;12775;46.994;15.498;2023-09-12T05:27:07;17.44;;;16.14;;
1987;SDS011;12775;46.994;15.498;2023-09-12T05:29:33;18.38;;;16.88;;
1987;SDS011;12775;46.994;15.498;2023-09-12T05:32:00;18.62;;;16.70;;
1987;SDS011;12775;46.994;15.498;2023-09-12T05:34:28;16.90;;;15.60;;
1987;SDS011;12775;46.994;15.498;2023-09-12T05:36:54;17.04;;;15.68;;
1987;SDS011;12775;46.994;15.498;2023-09-12T05:39:21;15.50;;;14.08;;
1987;SDS011;12775;46.994;15.498;2023-09-12T05:41:48;15.56;;;14.08;;
1987;SDS011;12775;46.994;15.498;2023-09-12T05:44:14;15.50;;;14.06;;
1987;SDS011;12775;46.994;15.498;2023-09-12T05:46:41;15.04;;;13.74;;
1987;SDS011;12775;46.994;15.498;2023-09-12T05:49:07;17.84;;;14.42;;
1987;SDS011;12775;46.994;15.498;2023-09-12T05:51:34;14.90;;;13.60;;
1987;SDS011;12775;46.994;15.498;2023-09-12T05:54:00;14.52;;;13.10;;
1987;SDS011;12775;46.994;15.498;2023-09-12T05:56:28;16.56;;;15.08;;
1987;SDS011;12775;46.994;15.498;2023-09-12T05:58:54;16.44;;;15.18;;
1987;SDS011;12775;46.994;15.498;2023-09-12T06:01:21;14.74;;;13.60;;
1987;SDS011;12775;46.994;15.498;2023-09-12T06:03:48;13.64;;;12.66;;
1987;SDS011;12775;46.994;15.498;2023-09-12T06:06:14;21.78;;;16.90;;
1987;SDS011;12775;46.994;15.498;2023-09-12T06:08:41;16.44;;;15.14;;
1987;SDS011;12775;46.994;15.498;2023-09-12T06:11:07;16.44;;;15.04;;
1987;SDS011;12775;46.994;15.498;2023-09-12T06:13:34;17.42;;;15.48;;
1987;SDS011;12775;46.994;15.498;2023-09-12T06:16:01;18.80;;;15.50;;
1987;SDS011;12775;46.994;15.498;2023-09-12T06:18:27;18.42;;;16.74;;
1987;SDS011;12775;46.994;15.498;2023-09-12T06:20:54;15.98;;;14.72;;
1987;SDS011;12775;46.994;15.498;2023-09-12T06:23:20;17.84;;;16.30;;
1987;SDS011;12775;46.994;15.498;2023-09-12T06:25:47;16.96;;;15.54;;
1987;SDS011;12775;46.994;15.498;2023-09-12T06:28:14;18.28;;;16.70;;
1987;SDS011;12775;46.994;15.498;2023-09-12T06:30:41;18.14;;;16.44;;
1987;SDS011;12775;46.994;15.498;2023-09-12T06:33:08;18.20;;;16.70;;
1987;SDS011;12775;46.994;15.498;2023-09-12T06:35:34;17.32;;;15.90;;
1987;SDS011;12775;46.994;15.498;2023-09-12T06:38:01;19.20;;;17.76;;
1987;SDS011;12775;46.994;15.498;2023-09-12T06:40:27;16.94;;;15.40;;
1987;SDS011;12775;46.994;15.498;2023-09-12T06:42:55;17.62;;;16.06;;
1987;SDS011;12775;46.994;15.498;2023-09-12T06:45:21;18.26;;;16.86;;
1987;SDS011;12775;46.994;15.498;2023-09-12T06:47:48;19.92;;;18.06;;
1987;SDS011;12775;46.994;15.498;2023-09-12T06:50:15;17.26;;;15.94;;
1987;SDS011;12775;46.994;15.498;2023-09-12T06:52:41;18.58;;;16.96;;
1987;SDS011;12775;46.994;15.498;2023-09-12T06:55:08;18.36;;;16.86;;
1987;SDS011;12775;46.994;15.498;2023-09-12T06:57:35;20.20;;;18.50;;
1987;SDS011;12775;46.994;15.498;2023-09-12T07:00:01;19.14;;;17.64;;
1987;SDS011;12775;46.994;15.498;2023-09-12T07:02:28;20.44;;;18.98;;
1987;SDS011;12775;46.994;15.498;2023-09-12T07:04:55;19.98;;;18.30;;
1987;SDS011;12775;46.994;15.498;2023-09-12T07:07:22;19.98;;;18.48;;
1987;SDS011;12775;46.994;15.498;2023-09-12T07:09:49;18.38;;;16.92;;
1987;SDS011;12775;46.994;15.498;2023-09-12T07:12:15;18.86;;;17.44;;
1987;SDS011;12775;46.994;15.498;2023-09-12T07:14:42;18.22;;;16.66;;
1987;SDS011;12775;46.994;15.498;2023-09-12T07:17:09;18.74;;;17.02;;
1987;SDS011;12775;46.994;15.498;2023-09-12T07:19:35;18.66;;;17.10;;
1987;SDS011;12775;46.994;15.498;2023-09-12T07:22:02;19.76;;;18.10;;
1987;SDS011;12775;46.994;15.498;2023-09-12T07:24:28;18.08;;;16.58;;
1987;SDS011;12775;46.994;15.498;2023-09-12T07:26:55;20.02;;;18.42;;
1987;SDS011;12775;46.994;15.498;2023-09-12T07:29:22;19.70;;;18.00;;
1987;SDS011;12775;46.994;15.498;2023-09-12T07:31:51;19.74;;;17.90;;
1987;SDS011;12775;46.994;15.498;2023-09-12T07:34:15;17.56;;;16.26;;
1987;SDS011;12775;46.994;15.498;2023-09-12T07:36:41;20.18;;;18.50;;
1987;SDS011;12775;46.994;15.498;2023-09-12T07:39:08;17.66;;;15.96;;
1987;SDS011;12775;46.994;15.498;2023-09-12T07:41:35;18.54;;;16.98;;
1987;SDS011;12775;46.994;15.498;2023-09-12T07:44:01;25.30;;;17.90;;
1987;SDS011;12775;46.994;15.498;2023-09-12T07:46:28;18.68;;;17.08;;
1987;SDS011;12775;46.994;15.498;2023-09-12T07:48:54;16.30;;;14.50;;
1987;SDS011;12775;46.994;15.498;2023-09-12T07:51:21;18.54;;;16.92;;
1987;SDS011;12775;46.994;15.498;2023-09-12T07:53:48;19.50;;;17.84;;
1987;SDS011;12775;46.994;15.498;2023-09-12T07:56:14;20.56;;;18.76;;
1987;SDS011;12775;46.994;15.498;2023-09-12T07:58:41;20.52;;;18.68;;
1987;SDS011;12775;46.994;15.498;2023-09-12T08:01:08;19.72;;;17.82;;
1987;SDS011;12775;46.994;15.498;2023-09-12T08:03:34;17.12;;;15.66;;
1987;SDS011;12775;46.994;15.498;2023-09-12T08:06:01;17.96;;;16.60;;
1987;SDS011;12775;46.994;15.498;2023-09-12T08:08:27;19.12;;;17.30;;
1987;SDS011;12775;46.994;15.498;2023-09-12T08:10:54;21.04;;;18.72;;
1987;SDS011;12775;46.994;15.498;2023-09-12T08:13:21;19.30;;;17.62;;
1987;SDS011;12775;46.994;15.498;2023-09-12T08:15:47;19.06;;;17.16;;
1987;SDS011;12775;46.994;15.498;2023-09-12T08:18:14;16.88;;;15.36;;
1987;SDS011;12775;46.994;15.498;2023-09-12T08:20:42;21.76;;;17.78;;
1987;SDS011;12775;46.994;15.498;2023-09-12T08:23:08;17.96;;;16.32;;
1987;SDS011;12775;46.994;15.498;2023-09-12T08:25:34;18.94;;;17.06;;
1987;SDS011;12775;46.994;15.498;2023-09-12T08:28:01;18.86;;;16.76;;
1987;SDS011;12775;46.994;15.498;2023-09-12T08:30:27;16.86;;;15.22;;
1987;SDS011;12775;46.994;15.498;2023-09-12T08:32:55;15.00;;;13.80;;
1987;SDS011;12775;46.994;15.498;2023-09-12T08:35:22;16.72;;;15.32;;
1987;SDS011;12775;46.994;15.498;2023-09-12T08:37:49;16.48;;;14.88;;
1987;SDS011;12775;46.994;15.498;2023-09-12T08:40:16;17.14;;;15.72;;
1987;SDS011;12775;46.994;15.498;2023-09-12T08:42:43;16.66;;;15.00;;
1987;SDS011;12775;46.994;15.498;2023-09-12T08:45:11;17.44;;;15.94;;
1987;SDS011;12775;46.994;15.498;2023-09-12T08:47:38;17.38;;;15.70;;
1987;SDS011;12775;46.994;15.498;2023-09-12T08:50:04;16.14;;;14.70;;
1987;SDS011;12775;46.994;15.498;2023-09-12T08:52:31;16.94;;;15.26;;
1987;SDS011;12775;46.994;15.498;2023-09-12T08:54:59;14.06;;;13.04;;
1987;SDS011;12775;46.994;15.498;2023-09-12T08:57:25;16.08;;;14.00;;
1987;SDS011;12775;46.994;15.498;2023-09-12T08:59:53;16.84;;;15.48;;
1987;SDS011;12775;46.994;15.498;2023-09-12T09:02:20;15.80;;;14.58;;
1987;SDS011;12775;46.994;15.498;2023-09-12T09:04:47;17.00;;;15.54;;
1987;SDS011;12775;46.994;15.498;2023-09-12T09:07:14;16.90;;;15.50;;
1987;SDS011;12775;46.994;15.498;2023-09-12T09:09:41;14.56;;;13.36;;
1987;SDS011;12775;46.994;15.498;2023-09-12T09:12:08;15.68;;;14.36;;
1987;SDS011;12775;46.994;15.498;2023-09-12T09:14:34;17.32;;;15.58;;
1987;SDS011;12775;46.994;15.498;2023-09-12T09:17:01;15.38;;;14.04;;
1987;SDS011;12775;46.994;15.498;2023-09-12T09:22:06;16.38;;;15.08;;
1987;SDS011;12775;46.994;15.498;2023-09-12T09:24:33;16.70;;;15.38;;
1987;SDS011;12775;46.994;15.498;2023-09-12T09:27:00;16.14;;;14.82;;
1987;SDS011;12775;46.994;15.498;2023-09-12T09:29:27;16.28;;;14.80;;
1987;SDS011;12775;46.994;15.498;2023-09-12T09:31:53;17.20;;;15.62;;
1987;SDS011;12775;46.994;15.498;2023-09-12T09:34:20;16.42;;;14.90;;
1987;SDS011;12775;46.994;15.498;2023-09-12T09:36:48;14.84;;;13.54;;
1987;SDS011;12775;46.994;15.498;2023-09-12T09:39:14;16.72;;;15.20;;
1987;SDS011;12775;46.994;15.498;2023-09-12T09:41:41;15.84;;;14.54;;
1987;SDS011;12775;46.994;15.498;2023-09-12T09:44:07;16.18;;;14.86;;
1987;SDS011;12775;46.994;15.498;2023-09-12T09:46:35;15.90;;;14.64;;
1987;SDS011;12775;46.994;15.498;2023-09-12T09:49:01;16.46;;;14.98;;
1987;SDS011;12775;46.994;15.498;2023-09-12T09:51:30;16.72;;;15.38;;
1987;SDS011;12775;46.994;15.498;2023-09-12T09:53:57;13.88;;;12.80;;
1987;SDS011;12775;46.994;15.498;2023-09-12T09:56:24;16.66;;;15.18;;
1987;SDS011;12775;46.994;15.498;2023-09-12T09:58:51;19.12;;;16.32;;
1987;SDS011;12775;46.994;15.498;2023-09-12T10:01:19;16.10;;;14.64;;
1987;SDS011;12775;46.994;15.498;2023-09-12T10:03:45;15.34;;;14.00;;
1987;SDS011;12775;46.994;15.498;2023-09-12T10:06:12;15.50;;;14.40;;
1987;SDS011;12775;46.994;15.498;2023-09-12T10:08:38;15.72;;;14.42;;
1987;SDS011;12775;46.994;15.498;2023-09-12T10:11:05;14.08;;;13.08;;
1987;SDS011;12775;46.994;15.498;2023-09-12T10:13:32;14.56;;;13.48;;
1987;SDS011;12775;46.994;15.498;2023-09-12T10:15:58;15.62;;;14.52;;
1987;SDS011;12775;46.994;15.498;2023-09-12T10:18:25;15.84;;;14.36;;
1987;SDS011;12775;46.994;15.498;2023-09-12T10:20:52;15.18;;;13.88;;
1987;SDS011;12775;46.994;15.498;2023-09-12T10:23:34;15.72;;;14.48;;
1987;SDS011;12775;46.994;15.498;2023-09-12T10:26:00;16.44;;;14.84;;
1987;SDS011;12775;46.994;15.498;2023-09-12T10:28:27;16.58;;;15.24;;
1987;SDS011;12775;46.994;15.498;2023-09-12T10:30:53;16.66;;;15.22;;
1987;SDS011;12775;46.994;15.498;2023-09-12T10:33:20;14.18;;;12.96;;
1987;SDS011;12775;46.994;15.498;2023-09-12T10:35:48;15.26;;;13.78;;
1987;SDS011;12775;46.994;15.498;2023-09-12T10:38:14;15.74;;;14.34;;
1987;SDS011;12775;46.994;15.498;2023-09-12T10:40:41;14.92;;;13.66;;
1987;SDS011;12775;46.994;15.498;2023-09-12T10:43:07;15.08;;;13.88;;
1987;SDS011;12775;46.994;15.498;2023-09-12T10:45:35;14.98;;;13.80;;
1987;SDS011;12775;46.994;15.498;2023-09-12T10:48:02;14.56;;;13.46;;
1987;SDS011;12775;46.994;15.498;2023-09-12T10:50:28;14.42;;;13.22;;
1987;SDS011;12775;46.994;15.498;2023-09-12T10:52:56;15.00;;;13.80;;
1987;SDS011;12775;46.994;15.498;2023-09-12T10:55:22;13.08;;;12.06;;
1987;SDS011;12775;46.994;15.498;2023-09-12T11:00:25;14.28;;;13.02;;
1987;SDS011;12775;46.994;15.498;2023-09-12T11:02:52;13.50;;;12.28;;
1987;SDS011;12775;46.994;15.498;2023-09-12T11:08:09;12.72;;;11.76;;
1987;SDS011;12775;46.994;15.498;2023-09-12T11:10:35;12.54;;;11.72;;
1987;SDS011;12775;46.994;15.498;2023-09-12T11:13:02;12.48;;;11.58;;
1987;SDS011;12775;46.994;15.498;2023-09-12T11:15:28;14.30;;;12.90;;
1987;SDS011;12775;46.994;15.498;2023-09-12T11:18:01;14.34;;;13.34;;
1987;SDS011;12775;46.994;15.498;2023-09-12T11:20:27;13.18;;;12.26;;
1987;SDS011;12775;46.994;15.498;2023-09-12T11:22:53;13.92;;;12.60;;
1987;SDS011;12775;46.994;15.498;2023-09-12T11:25:21;12.76;;;11.70;;
1987;SDS011;12775;46.994;15.498;2023-09-12T11:30:32;14.34;;;12.90;;
1987;SDS011;12775;46.994;15.498;2023-09-12T11:32:58;13.88;;;12.88;;
1987;SDS011;12775;46.994;15.498;2023-09-12T11:35:27;12.50;;;11.60;;
1987;SDS011;12775;46.994;15.498;2023-09-12T11:37:54;13.70;;;12.58;;
1987;SDS011;12775;46.994;15.498;2023-09-12T11:40:24;14.28;;;13.28;;
1987;SDS011;12775;46.994;15.498;2023-09-12T11:42:50;13.56;;;12.54;;
1987;SDS011;12775;46.994;15.498;2023-09-12T11:45:18;12.84;;;12.04;;
1987;SDS011;12775;46.994;15.498;2023-09-12T11:47:44;13.70;;;12.32;;
1987;SDS011;12775;46.994;15.498;2023-09-12T11:52:49;14.50;;;13.42;;
1987;SDS011;12775;46.994;15.498;2023-09-12T11:55:22;13.36;;;12.06;;
1987;SDS011;12775;46.994;15.498;2023-09-12T11:57:43;12.80;;;11.90;;
1987;SDS011;12775;46.994;15.498;2023-09-12T12:00:10;14.18;;;13.08;;
1987;SDS011;12775;46.994;15.498;2023-09-12T12:02:37;12.72;;;11.52;;
1987;SDS011;12775;46.994;15.498;2023-09-12T12:05:04;15.26;;;13.66;;
1987;SDS011;12775;46.994;15.498;2023-09-12T12:07:31;13.40;;;12.40;;
1987;SDS011;12775;46.994;15.498;2023-09-12T12:09:57;13.68;;;12.54;;
1987;SDS011;12775;46.994;15.498;2023-09-12T12:12:25;13.24;;;12.22;;
1987;SDS011;12775;46.994;15.498;2023-09-12T12:14:51;14.36;;;13.14;;
1987;SDS011;12775;46.994;15.498;2023-09-12T12:17:18;13.62;;;12.36;;
1987;SDS011;12775;46.994;15.498;2023-09-12T12:19:45;15.48;;;13.82;;
1987;SDS011;12775;46.994;15.498;2023-09-12T12:22:11;13.26;;;12.26;;
1987;SDS011;12775;46.994;15.498;2023-09-12T12:24:38;14.32;;;13.30;;
1987;SDS011;12775;46.994;15.498;2023-09-12T12:27:06;14.78;;;12.58;;
1987;SDS011;12775;46.994;15.498;2023-09-12T12:29:33;12.82;;;12.02;;
1987;SDS011;12775;46.994;15.498;2023-09-12T12:32:01;13.68;;;12.78;;
1987;SDS011;12775;46.994;15.498;2023-09-12T12:34:28;14.14;;;12.72;;
1987;SDS011;12775;46.994;15.498;2023-09-12T12:36:54;13.14;;;12.20;;
1987;SDS011;12775;46.994;15.498;2023-09-12T12:39:21;13.72;;;12.62;;
1987;SDS011;12775;46.994;15.498;2023-09-12T12:41:48;14.96;;;11.60;;
1987;SDS011;12775;46.994;15.498;2023-09-12T12:44:15;13.84;;;12.56;;
1987;SDS011;12775;46.994;15.498;2023-09-12T12:46:49;15.26;;;13.92;;
1987;SDS011;12775;46.994;15.498;2023-09-12T12:49:17;13.12;;;12.02;;
1987;SDS011;12775;46.994;15.498;2023-09-12T12:51:44;12.94;;;11.98;;
1987;SDS011;12775;46.994;15.498;2023-09-12T12:54:11;11.80;;;10.78;;
1987;SDS011;12775;46.994;15.498;2023-09-12T12:56:38;13.26;;;12.34;;
1987;SDS011;12775;46.994;15.498;2023-09-12T12:59:05;13.18;;;12.08;;
1987;SDS011;12775;46.994;15.498;2023-09-12T13:01:33;12.48;;;11.38;;
1987;SDS011;12775;46.994;15.498;2023-09-12T13:03:59;12.72;;;11.78;;
1987;SDS011;12775;46.994;15.498;2023-09-12T13:06:26;12.36;;;11.10;;
1987;SDS011;12775;46.994;15.498;2023-09-12T13:08:53;11.88;;;10.60;;
1987;SDS011;12775;46.994;15.498;2023-09-12T13:11:20;11.72;;;10.82;;
1987;SDS011;12775;46.994;15.498;2023-09-12T13:13:48;12.12;;;10.88;;
1987;SDS011;12775;46.994;15.498;2023-09-12T13:16:14;11.64;;;10.74;;
1987;SDS011;12775;46.994;15.498;2023-09-12T13:18:41;12.96;;;11.96;;
1987;SDS011;12775;46.994;15.498;2023-09-12T13:21:07;12.94;;;11.72;;
1987;SDS011;12775;46.994;15.498;2023-09-12T13:23:35;13.80;;;12.34;;
1987;SDS011;12775;46.994;15.498;2023-09-12T13:26:01;12.94;;;11.14;;
1987;SDS011;12775;46.994;15.498;2023-09-12T13:28:29;12.62;;;11.72;;
1987;SDS011;12775;46.994;15.498;2023-09-12T13:30:55;12.94;;;11.84;;
1987;SDS011;12775;46.994;15.498;2023-09-12T13:33:24;13.24;;;12.00;;
1987;SDS011;12775;46.994;15.498;2023-09-12T13:35:51;14.42;;;12.16;;
1987;SDS011;12775;46.994;15.498;2023-09-12T13:38:18;12.66;;;11.74;;
1987;SDS011;12775;46.994;15.498;2023-09-12T13:40:45;12.94;;;11.70;;
1987;SDS011;12775;46.994;15.498;2023-09-12T13:43:11;13.26;;;12.10;;
1987;SDS011;12775;46.994;15.498;2023-09-12T13:45:38;12.32;;;11.20;;
1987;SDS011;12775;46.994;15.498;2023-09-12T13:48:05;12.86;;;11.86;;
1987;SDS011;12775;46.994;15.498;2023-09-12T13:50:31;13.30;;;12.20;;
1987;SDS011;12775;46.994;15.498;2023-09-12T13:52:59;14.04;;;12.84;;
1987;SDS011;12775;46.994;15.498;2023-09-12T13:55:26;13.66;;;12.28;;
1987;SDS011;12775;46.994;15.498;2023-09-12T13:57:53;13.26;;;12.18;;
1987;SDS011;12775;46.994;15.498;2023-09-12T14:00:19;13.38;;;12.24;;
1987;SDS011;12775;46.994;15.498;2023-09-12T14:02:46;14.68;;;13.46;;
1987;SDS011;12775;46.994;15.498;2023-09-12T14:05:13;14.86;;;13.56;;
1987;SDS011;12775;46.994;15.498;2023-09-12T14:07:40;14.64;;;13.24;;
1987;SDS011;12775;46.994;15.498;2023-09-12T14:10:07;14.46;;;13.26;;
1987;SDS011;12775;46.994;15.498;2023-09-12T14:12:33;13.54;;;12.44;;
1987;SDS011;12775;46.994;15.498;2023-09-12T14:15:00;12.84;;;11.74;;
1987;SDS011;12775;46.994;15.498;2023-09-12T14:17:27;14.16;;;12.92;;
1987;SDS011;12775;46.994;15.498;2023-09-12T14:19:53;14.28;;;12.98;;
1987;SDS011;12775;46.994;15.498;2023-09-12T14:22:20;14.34;;;13.16;;
1987;SDS011;12775;46.994;15.498;2023-09-12T14:24:47;14.28;;;12.98;;
1987;SDS011;12775;46.994;15.498;2023-09-12T14:27:14;14.44;;;13.24;;
1987;SDS011;12775;46.994;15.498;2023-09-12T14:29:40;14.44;;;13.14;;
1987;SDS011;12775;46.994;15.498;2023-09-12T14:32:07;13.30;;;12.14;;